Time;durP1;ratioP1;P1;durP2;ratioP2;P2;SDS_P1;SDS_P2;PMS_P1;PMS_P2;Temp;Humidity;BMP_temperature;BMP_pressure;BME280_temperature;BME280_humidity;BME280_pressure;Samples;Min_cycle;Max_cycle;Signal;HPM_P1;HPM_P2
2020/12/18 00:01:34;;;;;;;6.75;3.78;;;28.70;66.30;;;;;;5121127;27;20302;-58
2020/12/18 00:04:06;;;;;;;5.25;3.38;;;28.80;66.40;;;;;;5121259;27;20343;-58
2020/12/18 00:06:37;;;;;;;5.35;3.47;;;28.80;66.40;;;;;;5121868;27;20231;-57
2020/12/18 00:09:08;;;;;;;8.30;3.30;;;28.80;66.40;;;;;;5122204;27;20601;-57
2020/12/18 00:11:40;;;;;;;3.95;3.42;;;28.80;66.40;;;;;;5119332;27;20695;-58
2020/12/18 00:14:10;;;;;;;4.93;3.20;;;28.80;66.40;;;;;;5121537;27;20714;-56
2020/12/18 00:16:41;;;;;;;3.55;3.20;;;28.80;66.50;;;;;;5120049;27;20239;-59
2020/12/18 00:19:11;;;;;;;4.78;3.30;;;28.80;66.50;;;;;;5121208;27;20232;-59
2020/12/18 00:21:42;;;;;;;3.47;3.10;;;28.80;66.50;;;;;;5121821;27;20234;-56
2020/12/18 00:24:13;;;;;;;5.93;3.22;;;28.90;66.50;;;;;;5121796;27;20323;-58
2020/12/18 00:26:45;;;;;;;3.80;3.20;;;28.90;66.40;;;;;;5123358;27;20718;-53
2020/12/18 00:29:15;;;;;;;6.18;3.67;;;28.90;66.50;;;;;;5122205;27;20223;-55
2020/12/18 00:31:46;;;;;;;3.83;3.45;;;28.90;66.40;;;;;;5122544;27;20998;-55
2020/12/18 00:34:16;;;;;;;3.60;2.95;;;29.00;66.50;;;;;;5123230;27;20234;-56
2020/12/18 00:36:52;;;;;;;4.07;3.38;;;29.00;66.40;;;;;;5122279;27;20254;-58
2020/12/18 00:39:23;;;;;;;8.77;3.75;;;29.10;66.30;;;;;;5119560;27;20230;-55
2020/12/18 00:41:55;;;;;;;4.47;3.20;;;29.10;66.30;;;;;;5122414;27;20238;-57
2020/12/18 00:44:26;;;;;;;3.80;3.05;;;29.10;66.40;;;;;;5121595;27;25409;-57
2020/12/18 00:46:56;;;;;;;6.15;3.30;;;29.20;66.40;;;;;;5122934;27;20323;-56
2020/12/18 00:49:27;;;;;;;4.57;3.63;;;29.20;66.50;;;;;;5121121;27;20267;-55
2020/12/18 00:51:58;;;;;;;3.88;3.05;;;29.20;67.10;;;;;;5123576;27;20610;-57
2020/12/18 00:54:28;;;;;;;3.90;3.30;;;29.30;66.40;;;;;;5123237;27;20235;-58
2020/12/18 00:57:00;;;;;;;6.40;3.58;;;29.30;66.20;;;;;;5119669;27;20236;-58
2020/12/18 00:59:31;;;;;;;3.85;3.25;;;29.30;66.10;;;;;;5122644;27;20855;-56
2020/12/18 01:02:02;;;;;;;5.28;3.20;;;29.40;66.00;;;;;;5122782;27;20303;-58
2020/12/18 01:04:34;;;;;;;4.93;3.40;;;29.40;65.80;;;;;;5120506;27;20315;-58
2020/12/18 01:07:04;;;;;;;4.22;3.10;;;29.50;65.90;;;;;;5119298;27;20227;-58
2020/12/18 01:09:34;;;;;;;5.13;3.08;;;29.50;65.90;;;;;;5123553;27;20227;-58
2020/12/18 01:12:06;;;;;;;5.32;2.90;;;29.60;66.00;;;;;;5120332;27;20223;-58
2020/12/18 01:14:37;;;;;;;4.05;3.20;;;29.60;66.00;;;;;;5119979;27;20224;-58
2020/12/18 01:17:08;;;;;;;4.80;3.67;;;29.70;66.00;;;;;;5057459;28;20882;-58
2020/12/18 01:19:38;;;;;;;9.25;4.22;;;29.70;65.70;;;;;;5055414;28;20233;-56
2020/12/18 01:22:09;;;;;;;3.55;3.25;;;29.80;65.20;;;;;;5057513;28;20236;-56
2020/12/18 01:24:39;;;;;;;4.97;3.78;;;29.90;65.20;;;;;;5058633;28;20241;-56
2020/12/18 01:27:11;;;;;;;4.97;3.70;;;29.90;64.80;;;;;;5057032;28;20238;-57
2020/12/18 01:29:42;;;;;;;5.72;4.07;;;29.90;64.60;;;;;;5055205;28;20779;-56
2020/12/18 01:32:13;;;;;;;5.10;3.55;;;30.00;64.20;;;;;;5057969;28;20221;-57
2020/12/18 01:34:45;;;;;;;5.90;4.00;;;30.00;64.40;;;;;;5054626;28;20256;-58
2020/12/18 01:37:16;;;;;;;6.05;3.13;;;30.10;64.40;;;;;;5055688;28;20256;-56
2020/12/18 01:39:47;;;;;;;5.78;4.18;;;30.10;64.60;;;;;;5058269;28;20248;-57
2020/12/18 01:42:19;;;;;;;6.78;3.78;;;30.20;64.40;;;;;;5104568;27;20227;-56
2020/12/18 01:44:50;;;;;;;4.55;3.63;;;30.20;64.20;;;;;;5119629;27;20221;-56
2020/12/18 01:47:24;;;;;;;5.55;3.58;;;30.20;64.00;;;;;;5119158;27;20232;-55
2020/12/18 01:49:55;;;;;;;4.43;3.40;;;30.30;63.90;;;;;;5117407;27;20977;-58
2020/12/18 01:52:26;;;;;;;3.47;3.13;;;30.40;63.80;;;;;;5119874;27;20922;-56
2020/12/18 01:54:57;;;;;;;5.43;3.28;;;30.40;63.80;;;;;;5119495;27;20234;-56
2020/12/18 01:57:29;;;;;;;3.83;3.40;;;30.50;63.70;;;;;;5119814;27;20235;-57
2020/12/18 02:00:01;;;;;;;7.47;3.40;;;30.50;63.70;;;;;;5119181;27;20234;-58
2020/12/18 02:02:32;;;;;;;4.13;3.72;;;30.60;63.20;;;;;;5121875;27;20709;-58
2020/12/18 02:05:03;;;;;;;3.90;3.58;;;30.70;63.20;;;;;;5120620;27;20250;-57
2020/12/18 02:07:33;;;;;;;5.15;3.35;;;30.80;63.30;;;;;;5119785;27;20231;-56
2020/12/18 02:10:04;;;;;;;3.80;3.22;;;30.80;62.70;;;;;;5119944;27;20897;-55
2020/12/18 02:12:36;;;;;;;7.20;3.17;;;30.90;62.30;;;;;;5118229;27;20232;-55
2020/12/18 02:15:06;;;;;;;9.27;3.80;;;31.00;62.00;;;;;;5118720;27;20240;-56
2020/12/18 02:17:37;;;;;;;6.78;3.33;;;31.00;61.60;;;;;;5121887;27;20251;-56
2020/12/18 02:20:07;;;;;;;6.65;3.20;;;31.10;60.90;;;;;;5120793;27;20317;-58
2020/12/18 02:22:38;;;;;;;12.82;4.30;;;31.10;60.80;;;;;;5118586;27;20251;-57
2020/12/18 02:25:09;;;;;;;5.50;2.90;;;31.20;60.80;;;;;;5118036;27;20724;-57
2020/12/18 02:27:41;;;;;;;4.80;2.80;;;31.30;60.60;;;;;;5116790;27;20223;-58
2020/12/18 02:30:13;;;;;;;5.65;3.30;;;31.30;60.50;;;;;;5117238;27;20236;-57
2020/12/18 02:32:44;;;;;;;3.78;2.78;;;31.40;60.60;;;;;;5120404;27;20323;-57
2020/12/18 02:35:14;;;;;;;3.80;3.20;;;31.40;60.60;;;;;;5118841;27;20238;-57
2020/12/18 02:37:46;;;;;;;4.13;3.05;;;31.50;60.10;;;;;;5117239;27;20231;-57
2020/12/18 02:40:16;;;;;;;4.68;2.80;;;31.60;59.90;;;;;;5118590;27;20243;-57
2020/12/18 02:42:48;;;;;;;4.28;2.60;;;31.60;59.50;;;;;;5119658;27;20219;-56
2020/12/18 02:45:19;;;;;;;7.20;3.33;;;31.70;59.40;;;;;;5118609;27;20628;-56
2020/12/18 02:47:49;;;;;;;6.72;3.53;;;31.70;59.30;;;;;;5121132;27;20239;-58
2020/12/18 02:50:19;;;;;;;4.72;3.53;;;31.80;59.20;;;;;;5119177;27;20227;-57
2020/12/18 02:52:50;;;;;;;5.15;3.50;;;31.90;58.90;;;;;;5118183;27;20231;-57
2020/12/18 02:55:21;;;;;;;3.95;3.00;;;31.90;58.70;;;;;;5117624;27;20299;-58
2020/12/18 02:57:53;;;;;;;6.43;4.15;;;31.90;58.40;;;;;;5117186;27;20251;-56
2020/12/18 03:00:23;;;;;;;5.60;3.97;;;32.00;58.50;;;;;;5119900;27;20231;-57
2020/12/18 03:02:54;;;;;;;6.30;4.00;;;32.10;58.40;;;;;;5117619;27;20239;-55
2020/12/18 03:05:26;;;;;;;5.35;4.00;;;32.10;58.40;;;;;;5116757;27;20234;-56
2020/12/18 03:07:56;;;;;;;5.72;3.30;;;32.10;58.40;;;;;;5116907;27;20235;-57
2020/12/18 03:10:27;;;;;;;3.00;2.80;;;32.20;58.70;;;;;;5118318;27;20218;-56
2020/12/18 03:12:59;;;;;;;5.97;3.85;;;32.30;58.20;;;;;;5118900;27;20705;-55
2020/12/18 03:15:30;;;;;;;3.83;3.35;;;32.40;57.70;;;;;;5118741;27;20301;-57
2020/12/18 03:18:00;;;;;;;4.28;3.33;;;32.40;57.50;;;;;;5118236;27;20255;-58
2020/12/18 03:20:31;;;;;;;5.78;3.40;;;32.50;57.30;;;;;;5117854;27;20226;-57
2020/12/18 03:23:02;;;;;;;4.13;2.80;;;32.50;57.20;;;;;;5119190;27;20223;-57
2020/12/18 03:25:34;;;;;;;3.83;3.00;;;32.50;57.00;;;;;;5117693;27;20299;-58
2020/12/18 03:28:06;;;;;;;4.70;2.92;;;32.60;57.20;;;;;;5117428;27;20710;-56
2020/12/18 03:30:37;;;;;;;6.97;2.95;;;32.60;57.00;;;;;;5118563;27;20245;-58
2020/12/18 03:33:08;;;;;;;4.63;3.15;;;32.60;56.50;;;;;;5116751;27;20697;-58
2020/12/18 03:35:38;;;;;;;4.55;3.45;;;32.70;56.30;;;;;;5118115;27;20239;-58
2020/12/18 03:38:09;;;;;;;3.72;3.05;;;32.70;56.60;;;;;;5119227;28;20326;-58
2020/12/18 03:40:39;;;;;;;4.68;3.38;;;32.80;56.40;;;;;;5120629;27;20235;-55
2020/12/18 03:43:11;;;;;;;4.28;2.50;;;32.80;56.70;;;;;;5118739;27;20304;-55
2020/12/18 03:45:42;;;;;;;3.47;2.35;;;32.80;55.90;;;;;;5119936;27;20251;-56
2020/12/18 03:48:13;;;;;;;4.65;2.70;;;32.90;56.10;;;;;;5119895;27;20608;-57
2020/12/18 03:50:44;;;;;;;3.50;2.08;;;33.00;55.90;;;;;;5117126;27;20238;-56
2020/12/18 03:53:15;;;;;;;2.83;2.20;;;33.00;56.10;;;;;;5117011;27;20300;-56
2020/12/18 03:55:46;;;;;;;2.78;2.20;;;33.00;56.00;;;;;;5117059;27;20238;-55
2020/12/18 03:58:20;;;;;;;3.25;2.60;;;33.10;56.20;;;;;;5120055;27;20666;-56
2020/12/18 04:00:51;;;;;;;4.43;2.53;;;33.20;56.40;;;;;;5120132;27;20318;-56
2020/12/18 04:03:22;;;;;;;4.43;2.70;;;33.20;55.80;;;;;;5118627;27;21028;-56
2020/12/18 04:05:54;;;;;;;3.15;2.55;;;33.30;55.10;;;;;;5119320;27;20773;-57
2020/12/18 04:08:25;;;;;;;2.88;2.58;;;33.40;55.00;;;;;;5119995;28;20235;-58
2020/12/18 04:11:09;;;;;;;2.92;2.38;;;33.40;55.00;;;;;;5130190;28;20234;-58
2020/12/18 04:21:03;;;;;;;2.47;2.20;;;33.60;54.70;;;;;;5126413;27;20238;-56
2020/12/18 04:23:34;;;;;;;3.15;2.40;;;33.70;53.70;;;;;;5129574;27;20227;-57
2020/12/18 04:26:04;;;;;;;4.10;2.42;;;33.70;53.90;;;;;;5132191;27;20227;-57
2020/12/18 04:28:35;;;;;;;4.13;2.17;;;33.70;54.00;;;;;;5133310;27;20321;-57
2020/12/18 04:31:05;;;;;;;2.67;2.15;;;33.80;53.90;;;;;;5133133;27;20227;-58
2020/12/18 04:33:36;;;;;;;3.17;2.10;;;33.80;54.20;;;;;;5130084;27;20231;-58
2020/12/18 04:36:08;;;;;;;4.38;2.35;;;33.80;54.10;;;;;;5133525;27;20246;-58
2020/12/18 04:38:39;;;;;;;3.53;2.25;;;33.90;54.10;;;;;;5133652;27;20227;-59
2020/12/18 04:41:10;;;;;;;2.28;2.08;;;33.90;54.20;;;;;;5133505;27;20223;-59
2020/12/18 04:43:41;;;;;;;3.95;2.50;;;34.00;54.60;;;;;;5132503;27;20227;-59
2020/12/18 04:46:12;;;;;;;4.53;2.72;;;34.10;54.20;;;;;;5133898;27;20234;-58
2020/12/18 04:48:42;;;;;;;4.00;2.72;;;34.20;53.90;;;;;;5133691;27;20241;-59
2020/12/18 04:51:18;;;;;;;3.20;2.90;;;34.20;54.20;;;;;;5071897;28;20295;-59
2020/12/18 04:53:50;;;;;;;3.60;3.30;;;34.30;54.00;;;;;;5075591;28;20321;-58
2020/12/18 04:56:22;;;;;;;4.05;3.65;;;34.30;54.00;;;;;;5090101;28;20236;-58
2020/12/18 04:58:53;;;;;;;4.70;2.95;;;34.40;53.80;;;;;;5090047;28;20319;-58
2020/12/18 05:01:24;;;;;;;6.18;2.80;;;34.40;53.60;;;;;;5089982;28;20228;-56
2020/12/18 05:03:55;;;;;;;3.38;2.92;;;34.50;53.70;;;;;;5089374;28;20228;-57
2020/12/18 05:06:27;;;;;;;5.05;2.65;;;34.60;53.60;;;;;;5045980;28;20226;-56
2020/12/18 05:08:58;;;;;;;5.32;2.88;;;34.60;53.30;;;;;;5030190;28;20262;-56
2020/12/18 05:11:29;;;;;;;3.47;3.03;;;34.60;53.50;;;;;;5029957;28;20231;-58
2020/12/18 05:13:59;;;;;;;2.95;2.63;;;34.70;53.40;;;;;;5034148;28;20637;-53
2020/12/18 05:16:30;;;;;;;2.75;2.50;;;34.70;53.60;;;;;;5082394;28;20298;-57
2020/12/18 05:19:04;;;;;;;5.78;2.92;;;34.80;53.50;;;;;;5073539;28;20302;-55
2020/12/18 05:21:36;;;;;;;3.50;3.17;;;34.80;53.30;;;;;;5079168;28;20322;-55
2020/12/18 05:24:07;;;;;;;4.95;3.63;;;34.90;53.90;;;;;;5084010;28;20263;-56
2020/12/18 05:26:38;;;;;;;5.80;2.97;;;34.90;52.70;;;;;;5082243;28;20300;-57
2020/12/18 05:29:09;;;;;;;4.22;3.42;;;35.00;52.40;;;;;;5082046;28;20378;-56
2020/12/18 05:31:39;;;;;;;5.32;3.50;;;35.00;51.90;;;;;;5114108;27;20227;-55
2020/12/18 05:34:10;;;;;;;4.03;3.65;;;35.00;51.80;;;;;;5121990;27;20238;-56
2020/12/18 05:36:43;;;;;;;4.18;3.08;;;35.00;51.90;;;;;;5119292;27;20257;-55
2020/12/18 05:39:14;;;;;;;3.50;3.20;;;35.00;51.80;;;;;;5114394;27;20247;-58
2020/12/18 05:41:45;;;;;;;5.45;3.05;;;35.00;51.80;;;;;;5111397;27;20682;-58
2020/12/18 05:44:16;;;;;;;5.28;3.03;;;34.90;51.60;;;;;;5109844;27;20246;-55
2020/12/18 05:46:46;;;;;;;3.50;3.20;;;34.90;51.90;;;;;;5105037;27;20326;-56
2020/12/18 05:49:17;;;;;;;3.83;3.10;;;35.00;52.30;;;;;;5104030;27;21025;-57
2020/12/18 05:51:49;;;;;;;6.13;3.55;;;35.00;51.60;;;;;;5106413;27;20249;-57
2020/12/18 05:54:20;;;;;;;3.90;3.42;;;35.00;51.40;;;;;;5107501;27;20238;-56
2020/12/18 05:56:52;;;;;;;4.30;3.33;;;35.00;51.20;;;;;;5103818;27;20288;-57
2020/12/18 05:59:23;;;;;;;5.50;3.17;;;35.00;51.10;;;;;;5109398;27;20230;-56
2020/12/18 06:01:54;;;;;;;3.65;2.95;;;35.00;51.00;;;;;;5110304;27;20231;-52
2020/12/18 06:04:25;;;;;;;5.65;3.58;;;35.00;51.30;;;;;;5121148;27;20242;-57
2020/12/18 06:06:58;;;;;;;3.53;2.78;;;35.00;51.40;;;;;;5120668;27;20223;-57
2020/12/18 06:09:29;;;;;;;4.53;2.72;;;35.00;51.50;;;;;;5106366;27;20263;-57
2020/12/18 06:12:00;;;;;;;3.33;2.90;;;35.00;51.30;;;;;;5108964;27;20242;-58
2020/12/18 06:14:30;;;;;;;4.53;3.00;;;35.00;51.40;;;;;;5107374;27;20227;-57
2020/12/18 06:17:09;;;;;;;3.75;3.00;;;35.10;51.70;;;;;;5108355;27;20259;-53
2020/12/18 06:19:40;;;;;;;4.35;3.05;;;35.10;51.30;;;;;;5125767;27;20231;-54
2020/12/18 06:22:13;;;;;;;4.38;3.03;;;35.10;51.30;;;;;;5125510;27;20222;-53
2020/12/18 06:24:44;;;;;;;4.13;3.10;;;35.10;51.30;;;;;;5123059;27;20886;-56
2020/12/18 06:27:16;;;;;;;7.88;3.67;;;35.20;51.50;;;;;;5125748;27;20706;-55
2020/12/18 06:29:47;;;;;;;4.53;3.10;;;35.20;51.10;;;;;;5121556;27;20231;-56
2020/12/18 06:32:27;;;;;;;3.35;2.78;;;35.20;51.10;;;;;;5126240;27;20224;-57
2020/12/18 06:35:28;;;;;;;3.55;3.25;;;35.20;51.10;;;;;;5121067;27;20227;-58
2020/12/18 06:37:59;;;;;;;3.45;3.15;;;35.20;51.10;;;;;;5080646;28;20232;-57
2020/12/18 06:40:30;;;;;;;4.72;3.13;;;35.20;51.10;;;;;;5083691;28;20338;-57
2020/12/18 06:43:01;;;;;;;3.42;3.00;;;35.30;51.20;;;;;;5080987;28;20264;-57
2020/12/18 06:45:31;;;;;;;4.82;3.38;;;35.30;51.40;;;;;;5080342;28;20225;-56
2020/12/18 06:48:02;;;;;;;4.78;3.20;;;35.30;51.00;;;;;;5082626;28;20228;-56
2020/12/18 06:50:36;;;;;;;7.95;3.53;;;35.40;51.20;;;;;;5080282;28;20236;-56
2020/12/18 06:53:08;;;;;;;7.22;3.30;;;35.40;51.10;;;;;;5075136;28;20270;-56
2020/12/18 06:55:42;;;;;;;4.75;3.40;;;35.40;51.20;;;;;;5012336;28;20721;-55
2020/12/18 06:58:23;;;;;;;4.03;3.30;;;35.50;51.10;;;;;;5028030;28;20694;-57
2020/12/18 07:00:55;;;;;;;3.53;3.22;;;35.50;50.90;;;;;;5031815;28;20234;-55
2020/12/18 07:03:36;;;;;;;3.97;3.17;;;35.50;50.70;;;;;;5014677;28;20296;-57
2020/12/18 07:06:09;;;;;;;4.38;3.15;;;35.50;50.90;;;;;;5021966;28;20706;-55
2020/12/18 07:08:40;;;;;;;6.30;3.08;;;35.60;51.00;;;;;;5031120;28;20236;-53
2020/12/18 07:11:13;;;;;;;4.05;3.10;;;35.60;50.70;;;;;;5037328;28;20226;-54
2020/12/18 07:13:48;;;;;;;3.05;2.75;;;35.60;50.50;;;;;;5040608;28;20234;-57
2020/12/18 07:16:20;;;;;;;3.45;3.00;;;35.60;50.50;;;;;;5041393;28;20244;-56
2020/12/18 07:18:51;;;;;;;2.97;2.47;;;35.60;50.50;;;;;;5044023;28;20276;-57
2020/12/18 07:21:23;;;;;;;3.70;3.08;;;35.70;50.70;;;;;;5044058;28;20329;-54
2020/12/18 07:23:54;;;;;;;2.90;2.60;;;35.70;50.80;;;;;;5042437;28;20669;-56
2020/12/18 07:26:25;;;;;;;5.43;3.17;;;35.70;50.40;;;;;;5064227;28;20231;-57
2020/12/18 07:28:55;;;;;;;3.75;2.90;;;35.70;50.30;;;;;;5095626;28;20251;-57
2020/12/18 07:31:27;;;;;;;3.15;2.85;;;35.80;50.40;;;;;;5095949;28;20238;-57
2020/12/18 07:33:58;;;;;;;5.10;3.13;;;35.80;50.20;;;;;;5094086;28;20921;-57
2020/12/18 07:36:33;;;;;;;3.83;2.60;;;35.80;50.20;;;;;;5089898;28;20699;-57
2020/12/18 07:39:03;;;;;;;3.00;2.63;;;35.80;50.00;;;;;;5092232;28;20289;-57
2020/12/18 07:41:34;;;;;;;3.20;2.90;;;35.80;50.00;;;;;;5093417;28;20757;-57
2020/12/18 07:44:05;;;;;;;5.28;3.30;;;35.80;50.20;;;;;;5093592;28;20362;-55
2020/12/18 07:46:36;;;;;;;3.95;2.95;;;35.80;50.00;;;;;;5091221;28;20227;-57
2020/12/18 07:49:15;;;;;;;4.38;3.00;;;35.80;49.80;;;;;;5092533;28;20231;-58
2020/12/18 07:51:49;;;;;;;3.20;2.90;;;35.80;50.10;;;;;;5099668;27;20789;-57
2020/12/18 07:54:21;;;;;;;3.20;2.85;;;35.80;50.00;;;;;;5097328;28;20234;-58
2020/12/18 07:56:51;;;;;;;3.30;3.00;;;35.80;49.70;;;;;;5097587;28;20230;-57
2020/12/18 07:59:22;;;;;;;3.67;2.83;;;35.80;49.90;;;;;;5097345;28;20266;-56
2020/12/18 08:01:54;;;;;;;2.60;2.40;;;35.80;49.90;;;;;;5099665;27;20221;-55
2020/12/18 08:04:26;;;;;;;4.20;3.80;;;35.80;50.00;;;;;;5109435;27;20318;-56
2020/12/18 08:06:59;;;;;;;2.97;2.67;;;35.80;50.10;;;;;;5123094;27;20235;-56
2020/12/18 08:09:33;;;;;;;2.50;2.30;;;35.80;49.80;;;;;;5120827;27;20328;-54
2020/12/18 08:12:08;;;;;;;3.40;2.90;;;35.80;49.70;;;;;;5120501;27;20232;-57
2020/12/18 08:14:38;;;;;;;3.00;2.65;;;35.80;49.70;;;;;;5026229;28;20229;-55
2020/12/18 08:17:12;;;;;;;2.85;2.50;;;35.90;50.00;;;;;;5025737;28;20304;-58
2020/12/18 08:19:42;;;;;;;2.90;2.70;;;35.90;50.00;;;;;;5025530;28;20222;-57
2020/12/18 08:22:14;;;;;;;3.13;2.83;;;35.90;49.60;;;;;;4965063;28;20331;-57
2020/12/18 08:24:45;;;;;;;3.05;2.63;;;36.00;49.60;;;;;;4966750;28;20300;-57
2020/12/18 08:27:17;;;;;;;4.60;3.05;;;35.90;49.40;;;;;;4909724;29;20321;-55
2020/12/18 08:29:48;;;;;;;3.40;3.10;;;36.00;49.50;;;;;;4908930;29;20238;-57
2020/12/18 08:32:20;;;;;;;3.30;3.00;;;36.00;49.40;;;;;;4909076;29;20384;-58
2020/12/18 08:34:51;;;;;;;3.38;3.08;;;36.00;49.00;;;;;;4907169;29;20337;-57
2020/12/18 08:37:24;;;;;;;4.20;3.13;;;36.00;49.30;;;;;;4907565;29;20270;-56
2020/12/18 08:39:58;;;;;;;4.40;3.40;;;36.10;49.50;;;;;;4939717;28;20260;-54
2020/12/18 08:42:28;;;;;;;3.63;3.28;;;36.10;49.20;;;;;;4946353;29;20768;-58
2020/12/18 08:45:00;;;;;;;5.13;3.40;;;36.10;49.00;;;;;;4959057;28;20305;-57
2020/12/18 08:47:30;;;;;;;4.10;3.70;;;36.10;49.30;;;;;;4956692;28;20260;-55
2020/12/18 08:50:02;;;;;;;3.80;3.40;;;36.10;49.20;;;;;;4964044;28;20331;-55
2020/12/18 08:52:34;;;;;;;3.53;2.95;;;36.20;49.30;;;;;;5023986;28;20322;-57
2020/12/18 08:55:05;;;;;;;3.75;3.03;;;36.20;48.90;;;;;;5086156;28;20325;-55
2020/12/18 08:57:36;;;;;;;2.75;2.47;;;36.20;48.70;;;;;;5083672;28;20790;-55
2020/12/18 09:00:11;;;;;;;3.63;3.28;;;36.30;48.60;;;;;;5086603;28;20247;-57
2020/12/18 09:02:43;;;;;;;3.85;3.55;;;36.20;48.70;;;;;;5074847;28;20318;-57
2020/12/18 09:05:17;;;;;;;3.65;3.00;;;36.30;48.30;;;;;;5085918;28;20241;-58
2020/12/18 09:07:53;;;;;;;3.95;3.53;;;36.20;48.40;;;;;;5086457;28;20237;-57
2020/12/18 09:10:40;;;;;;;3.10;2.80;;;36.20;48.50;;;;;;5087668;28;20694;-58
2020/12/18 09:13:12;;;;;;;4.82;3.40;;;36.30;48.80;;;;;;5086196;28;20710;-56
2020/12/18 09:15:44;;;;;;;3.95;3.13;;;36.20;48.20;;;;;;5087707;28;20232;-56
2020/12/18 09:18:15;;;;;;;3.92;3.25;;;36.30;48.40;;;;;;5100033;27;20354;-57
2020/12/18 09:20:46;;;;;;;3.28;2.75;;;36.30;48.90;;;;;;5121151;27;20492;-54
2020/12/18 09:23:18;;;;;;;3.30;2.88;;;36.30;49.60;;;;;;5120516;27;20234;-53
2020/12/18 09:25:52;;;;;;;4.25;2.85;;;36.30;50.20;;;;;;5121004;27;20306;-56
2020/12/18 09:28:22;;;;;;;4.70;3.13;;;36.30;50.20;;;;;;5119795;27;20743;-56
2020/12/18 09:30:54;;;;;;;2.92;2.67;;;36.30;49.60;;;;;;5120504;27;20234;-56
2020/12/18 09:33:30;;;;;;;2.65;2.20;;;36.40;49.30;;;;;;5120632;27;21120;-57
2020/12/18 09:36:09;;;;;;;6.10;2.72;;;36.40;49.00;;;;;;5120093;27;20238;-57
2020/12/18 09:38:41;;;;;;;4.38;3.47;;;36.40;48.60;;;;;;5121055;27;20251;-54
2020/12/18 09:41:13;;;;;;;2.83;2.60;;;36.40;48.30;;;;;;5120541;27;20235;-52
2020/12/18 09:43:43;;;;;;;3.97;3.00;;;36.50;48.10;;;;;;5119460;27;20231;-54
2020/12/18 09:46:14;;;;;;;3.17;2.88;;;36.50;48.20;;;;;;5122907;27;20272;-56
2020/12/18 09:48:45;;;;;;;3.45;3.05;;;36.60;48.30;;;;;;5121644;27;20234;-56
2020/12/18 09:51:16;;;;;;;3.40;3.10;;;36.60;48.10;;;;;;5120401;27;20231;-54
2020/12/18 09:53:48;;;;;;;2.78;2.58;;;36.70;47.50;;;;;;5120922;27;20599;-57
2020/12/18 09:56:19;;;;;;;5.10;2.83;;;36.70;47.90;;;;;;5120323;27;20223;-54
2020/12/18 09:58:49;;;;;;;4.22;2.97;;;36.70;47.90;;;;;;5120109;27;20229;-56
2020/12/18 10:01:23;;;;;;;6.38;3.00;;;36.70;47.80;;;;;;5120838;27;20639;-55
2020/12/18 10:03:54;;;;;;;3.30;3.00;;;36.70;47.70;;;;;;5119996;27;20713;-54
2020/12/18 10:06:27;;;;;;;3.83;2.97;;;36.70;48.30;;;;;;5118716;27;20270;-56
2020/12/18 10:08:58;;;;;;;5.47;2.83;;;36.70;48.10;;;;;;5119917;27;20228;-57
2020/12/18 10:11:29;;;;;;;3.42;2.55;;;36.70;47.60;;;;;;5120077;27;20232;-57
2020/12/18 10:14:00;;;;;;;3.42;2.85;;;36.80;47.80;;;;;;5119740;27;20322;-58
2020/12/18 10:16:34;;;;;;;6.25;2.88;;;36.90;47.80;;;;;;5119261;27;20321;-56
2020/12/18 10:19:04;;;;;;;3.40;3.10;;;37.10;47.50;;;;;;5120263;27;20232;-57
2020/12/18 10:21:35;;;;;;;3.50;2.80;;;37.30;47.40;;;;;;5119813;27;20227;-55
2020/12/18 10:24:07;;;;;;;5.22;3.10;;;37.50;47.30;;;;;;5119069;27;20224;-54
2020/12/18 10:26:54;;;;;;;3.10;2.80;;;37.70;46.90;;;;;;5120921;27;20234;-57
2020/12/18 10:29:25;;;;;;;4.00;3.00;;;37.90;46.40;;;;;;5119405;27;20250;-55
2020/12/18 10:31:56;;;;;;;5.68;3.60;;;38.10;45.60;;;;;;5120388;27;20255;-57
2020/12/18 10:34:27;;;;;;;5.35;3.28;;;38.10;45.40;;;;;;5117946;27;20259;-55
2020/12/18 10:36:57;;;;;;;3.50;3.13;;;38.10;45.50;;;;;;5118148;27;20254;-52
2020/12/18 10:39:29;;;;;;;3.95;3.13;;;38.10;45.40;;;;;;5119329;27;20220;-57
2020/12/18 10:42:00;;;;;;;4.25;3.10;;;38.00;45.30;;;;;;5118794;27;20705;-56
2020/12/18 10:44:30;;;;;;;5.22;3.85;;;37.90;45.40;;;;;;5055710;28;20244;-56
2020/12/18 10:47:00;;;;;;;4.80;3.50;;;37.70;45.30;;;;;;5055728;28;20316;-57
2020/12/18 10:49:31;;;;;;;6.60;4.30;;;37.50;45.50;;;;;;5055154;28;20233;-58
2020/12/18 10:52:03;;;;;;;6.95;4.65;;;37.30;45.70;;;;;;5056289;28;20627;-57
2020/12/18 10:54:38;;;;;;;6.65;4.50;;;37.10;46.20;;;;;;5055996;28;20232;-58
2020/12/18 10:57:11;;;;;;;4.93;4.43;;;36.90;46.60;;;;;;5057269;28;20241;-55
2020/12/18 10:59:48;;;;;;;5.28;4.53;;;36.60;47.10;;;;;;5054191;28;20236;-56
2020/12/18 11:02:20;;;;;;;4.60;4.20;;;36.40;47.40;;;;;;5056212;28;20233;-58
2020/12/18 11:04:51;;;;;;;5.28;4.30;;;36.20;47.90;;;;;;5055029;28;20239;-56
2020/12/18 11:07:21;;;;;;;5.05;3.72;;;35.90;48.30;;;;;;5054183;28;20936;-56
2020/12/18 11:09:53;;;;;;;4.65;4.05;;;35.80;49.00;;;;;;5107501;27;20793;-55
2020/12/18 11:12:24;;;;;;;4.60;4.05;;;35.60;49.40;;;;;;5119504;27;20231;-56
2020/12/18 11:14:55;;;;;;;4.95;4.25;;;35.40;49.60;;;;;;5054762;28;20244;-57
2020/12/18 11:17:27;;;;;;;5.22;4.18;;;35.30;49.90;;;;;;5048121;28;20307;-57
2020/12/18 11:19:58;;;;;;;5.72;4.30;;;35.20;50.30;;;;;;5058025;28;20664;-55
2020/12/18 11:22:29;;;;;;;8.00;5.10;;;35.10;50.80;;;;;;5056611;28;20313;-57
2020/12/18 11:25:01;;;;;;;7.50;4.63;;;35.00;51.20;;;;;;5057517;28;20229;-54
2020/12/18 11:27:31;;;;;;;7.95;5.90;;;35.00;51.60;;;;;;5056006;28;20372;-57
2020/12/18 11:30:09;;;;;;;7.93;5.53;;;34.90;51.40;;;;;;5053820;28;20266;-58
2020/12/18 11:32:40;;;;;;;12.43;7.00;;;34.90;51.70;;;;;;5056890;28;20229;-57
2020/12/18 11:35:10;;;;;;;10.32;8.38;;;34.80;51.70;;;;;;5043466;28;20233;-54
2020/12/18 11:37:41;;;;;;;8.38;7.47;;;34.70;51.80;;;;;;5045772;28;20265;-57
2020/12/18 11:40:13;;;;;;;7.72;6.57;;;34.70;51.90;;;;;;5055457;28;20311;-57
2020/12/18 11:42:43;;;;;;;8.00;6.10;;;34.60;51.90;;;;;;5055507;28;20391;-57
2020/12/18 11:45:14;;;;;;;8.27;6.40;;;34.50;51.90;;;;;;5069829;27;20231;-57
2020/12/18 11:47:44;;;;;;;7.60;6.15;;;34.40;52.10;;;;;;5118306;28;20237;-58
2020/12/18 11:50:15;;;;;;;6.45;5.20;;;34.40;52.20;;;;;;5118616;28;20615;-58
2020/12/18 11:52:46;;;;;;;6.35;4.90;;;34.40;52.40;;;;;;5117825;28;20224;-54
2020/12/18 11:55:17;;;;;;;5.90;5.30;;;34.30;52.50;;;;;;5118584;27;20237;-56
2020/12/18 11:57:51;;;;;;;6.25;5.65;;;34.30;52.60;;;;;;5118805;27;20238;-57
2020/12/18 12:00:21;;;;;;;6.00;5.40;;;34.20;52.60;;;;;;5117525;28;20287;-57
2020/12/18 12:02:53;;;;;;;6.72;5.32;;;34.20;52.70;;;;;;5111398;28;20223;-57
2020/12/18 12:05:24;;;;;;;6.20;5.38;;;34.10;52.70;;;;;;5118365;28;20236;-55
2020/12/18 12:07:54;;;;;;;6.40;4.70;;;34.10;53.00;;;;;;5118421;27;20235;-55
2020/12/18 12:10:27;;;;;;;5.40;4.45;;;34.00;53.10;;;;;;5117829;28;20238;-57
2020/12/18 12:12:58;;;;;;;7.05;4.15;;;34.00;53.10;;;;;;5118337;28;20239;-55
2020/12/18 12:15:28;;;;;;;5.35;3.63;;;34.00;53.10;;;;;;5119183;28;20308;-57
2020/12/18 12:17:59;;;;;;;4.90;4.13;;;34.00;53.30;;;;;;5119107;27;20232;-57
2020/12/18 12:20:29;;;;;;;5.25;3.90;;;33.90;53.40;;;;;;5118047;28;20246;-57
2020/12/18 12:23:00;;;;;;;5.45;4.00;;;33.90;53.60;;;;;;5117400;28;20227;-56
2020/12/18 12:25:36;;;;;;;4.32;3.92;;;33.80;53.60;;;;;;5118154;28;20224;-58
2020/12/18 12:28:07;;;;;;;5.00;3.83;;;33.80;53.80;;;;;;5117391;27;20250;-57
2020/12/18 12:30:38;;;;;;;5.22;4.03;;;33.80;53.80;;;;;;5117973;28;20233;-57
2020/12/18 12:33:09;;;;;;;4.97;4.10;;;33.70;53.80;;;;;;5118184;28;20231;-57
2020/12/18 12:35:41;;;;;;;5.60;4.15;;;33.70;53.70;;;;;;5120410;27;20235;-58
2020/12/18 12:38:12;;;;;;;5.53;3.95;;;33.70;53.80;;;;;;5122541;27;20237;-58
2020/12/18 12:40:49;;;;;;;3.45;3.15;;;33.60;54.00;;;;;;5122582;27;20234;-58
2020/12/18 12:43:20;;;;;;;4.35;3.63;;;33.60;54.10;;;;;;5121806;27;20309;-56
2020/12/18 12:45:51;;;;;;;4.13;3.67;;;33.60;54.30;;;;;;5122311;27;20223;-57
2020/12/18 12:48:25;;;;;;;4.75;3.70;;;33.50;54.40;;;;;;5122513;27;20227;-57
2020/12/18 12:50:55;;;;;;;4.18;3.78;;;33.50;54.70;;;;;;5121107;27;20236;-57
2020/12/18 12:53:26;;;;;;;6.72;4.43;;;33.40;54.70;;;;;;5121758;27;20240;-55
2020/12/18 12:55:58;;;;;;;5.10;4.55;;;33.40;55.00;;;;;;5121790;27;20240;-57
2020/12/18 12:58:28;;;;;;;6.43;4.82;;;33.30;55.10;;;;;;5121103;27;20699;-58
2020/12/18 13:00:59;;;;;;;6.78;4.78;;;33.30;55.10;;;;;;5122640;27;20300;-57
2020/12/18 13:03:30;;;;;;;5.75;5.22;;;33.20;55.30;;;;;;5121106;27;20665;-56
2020/12/18 13:06:01;;;;;;;6.00;4.97;;;33.20;55.50;;;;;;5122839;27;20227;-56
2020/12/18 13:08:32;;;;;;;5.80;4.90;;;33.10;55.50;;;;;;5120596;27;20978;-57
2020/12/18 13:11:04;;;;;;;7.22;5.10;;;33.10;55.70;;;;;;5120525;27;20232;-54
2020/12/18 13:13:35;;;;;;;6.63;4.78;;;33.10;56.00;;;;;;5122674;27;20258;-56
2020/12/18 13:16:05;;;;;;;8.35;5.55;;;33.00;55.90;;;;;;5121888;27;20299;-54